Main page
METAR-TAF:

METAR-TAF

Airports :

Landsberg, Germany

Landsberg-Lech Air Base

latitude: 48-04N, longitude: 010-54E, elevation: 623 m

Current weather observation

The report was made 31 minutes ago, at 02:20 UTC
Wind 3 kt from the South/Southeast
Temperature 11°C
Humidity 82%
Pressure 1021 hPa
Visibility 10 km or more

METAR: ETSA 280220Z 16003KT 9999 11/08 Q1021 BLU+

Time: 04:51 (02:51 UTC)

Forecast

The report was made 1 hour and 50 minutes ago, at 01:01 UTC
Forecast valid from 28 at 01 UTC to 28 at 11 UTC
Wind 3 kt from variable directions
Visibility 10 km or more
Few clouds at a height of 6000 ft

TAF: ETSA 280101Z 2801/2811 VRB03KT 9999 NSW FEW060 BY ETGL

Weather observations and forecasts of more than 4000 airports (METAR and TAF reports).

The available stations are represented by yellow and red dots on the map.

Hover mouse over dot to see the name of the station.

Then click to see weather observations and forecasts.

To change the map : click on the green buttons with a black cross to zoom in, on the green button with a dash to zoom out, or on the green arrows for adjacent maps.


METAR-TAF: